Time;durP1;ratioP1;P1;durP2;ratioP2;P2;SDS_P1;SDS_P2;PMS_P1;PMS_P2;Temp;Humidity;BMP_temperature;BMP_pressure;BME280_temperature;BME280_humidity;BME280_pressure;Samples;Min_cycle;Max_cycle;Signal;HPM_P1;HPM_P2
2023/12/25 00:01:57;;;;;;;0.80;0.80;;;;;;;10.79;100.00;100052.56;5073621;28;20662;-78
2023/12/25 00:04:22;;;;;;;1.73;0.87;;;;;;;10.81;100.00;100043.03;5073560;28;20194;-78
2023/12/25 00:06:47;;;;;;;1.33;0.97;;;;;;;10.83;100.00;100041.28;5071993;28;20305;-78
2023/12/25 00:09:13;;;;;;;1.23;0.80;;;;;;;10.82;100.00;100030.94;5070313;28;20250;-78
2023/12/25 00:11:38;;;;;;;1.47;0.93;;;;;;;10.77;100.00;100037.94;5077326;28;20195;-77
2023/12/25 00:14:03;;;;;;;1.30;0.80;;;;;;;10.74;100.00;100030.22;5074983;28;20317;-77
2023/12/25 00:16:29;;;;;;;1.63;1.00;;;;;;;10.70;100.00;100033.69;5073845;28;20193;-78
2023/12/25 00:18:55;;;;;;;0.93;0.83;;;;;;;10.72;100.00;100027.66;5075415;28;20560;-79
2023/12/25 00:21:20;;;;;;;1.57;1.13;;;;;;;10.72;100.00;100034.53;5076836;28;20206;-78
2023/12/25 00:23:46;;;;;;;1.20;0.87;;;;;;;10.72;100.00;100039.72;5075431;28;20192;-77
2023/12/25 00:26:11;;;;;;;2.17;1.10;;;;;;;10.72;100.00;100044.91;5076785;28;20604;-79
2023/12/25 00:28:36;;;;;;;1.30;0.97;;;;;;;10.70;100.00;100046.66;5079551;28;20278;-79
2023/12/25 00:31:02;;;;;;;0.87;0.87;;;;;;;10.67;100.00;100047.56;5068245;28;20228;-79
2023/12/25 00:33:27;;;;;;;0.97;0.70;;;;;;;10.68;100.00;100051.84;5076169;28;20628;-78
2023/12/25 00:35:52;;;;;;;1.13;0.80;;;;;;;10.70;100.00;100042.34;5074315;28;20335;-78
2023/12/25 00:38:18;;;;;;;1.10;0.93;;;;;;;10.69;100.00;100043.22;5077415;28;20293;-79
2023/12/25 00:40:43;;;;;;;1.57;0.90;;;;;;;10.67;100.00;100052.72;5078564;28;20203;-78
2023/12/25 00:43:08;;;;;;;1.60;1.13;;;;;;;10.67;100.00;100057.91;5077107;28;20212;-78
2023/12/25 00:45:34;;;;;;;0.87;0.80;;;;;;;10.65;100.00;100057.94;5075332;28;20193;-78
2023/12/25 00:47:59;;;;;;;2.20;0.80;;;;;;;10.65;100.00;100049.31;5076153;28;20670;-78
2023/12/25 00:50:24;;;;;;;1.10;0.90;;;;;;;10.68;100.00;100047.53;5075849;28;20214;-79
2023/12/25 00:52:49;;;;;;;2.20;1.20;;;;;;;10.70;100.00;100044.06;5075306;28;20174;-79
2023/12/25 00:55:15;;;;;;;1.60;1.10;;;;;;;10.70;100.00;100049.22;5073764;28;20224;-77
2023/12/25 00:57:40;;;;;;;1.10;0.70;;;;;;;10.67;100.00;100045.81;5074442;28;20195;-78
2023/12/25 01:00:06;;;;;;;2.70;1.07;;;;;;;10.68;100.00;100046.69;5076645;28;20193;-77
2023/12/25 01:02:31;;;;;;;1.17;0.97;;;;;;;10.69;100.00;100040.63;5075596;28;20254;-77
2023/12/25 01:04:57;;;;;;;1.33;0.87;;;;;;;10.72;100.00;100050.94;5073368;28;20940;-78
2023/12/25 01:07:22;;;;;;;1.40;1.00;;;;;;;10.75;100.00;100037.94;5076551;28;21153;-77
2023/12/25 01:09:47;;;;;;;1.07;0.80;;;;;;;10.68;100.00;100054.44;5071978;28;20232;-78
2023/12/25 01:12:13;;;;;;;1.77;1.10;;;;;;;10.63;100.00;100064.84;5079882;28;20299;-78
2023/12/25 01:14:42;;;;;;;1.23;0.93;;;;;;;10.70;100.00;100049.22;5075624;28;20219;-78
2023/12/25 01:17:07;;;;;;;1.03;1.00;;;;;;;10.66;100.00;100049.28;5076059;28;20315;-78
2023/12/25 01:19:33;;;;;;;1.23;0.90;;;;;;;10.64;100.00;100045.88;5071814;28;20290;-78
2023/12/25 01:21:58;;;;;;;1.33;0.80;;;;;;;10.69;100.00;100035.44;5075597;28;20235;-77
2023/12/25 01:24:23;;;;;;;1.80;0.80;;;;;;;10.67;100.00;100029.44;5081806;28;20284;-78
2023/12/25 01:26:49;;;;;;;1.30;1.00;;;;;;;10.66;100.00;100027.72;5086580;28;20197;-78
2023/12/25 01:29:14;;;;;;;1.40;1.00;;;;;;;10.62;100.00;100016.56;5081127;28;20690;-78
2023/12/25 01:31:40;;;;;;;1.67;0.90;;;;;;;10.64;100.00;100007.06;5081496;28;20187;-78
2023/12/25 01:34:05;;;;;;;2.13;0.93;;;;;;;10.60;100.00;100028.66;5082229;28;20192;-79
2023/12/25 01:36:31;;;;;;;2.17;1.13;;;;;;;10.63;100.00;100022.59;5073942;28;20200;-78
2023/12/25 01:38:56;;;;;;;2.77;1.23;;;;;;;10.63;100.00;100018.28;5079340;28;20190;-78
2023/12/25 01:41:21;;;;;;;1.10;1.00;;;;;;;10.59;100.00;100018.34;5081353;28;20299;-78
2023/12/25 01:43:47;;;;;;;1.57;1.10;;;;;;;10.62;100.00;100018.28;5082368;28;20508;-79
2023/12/25 01:46:13;;;;;;;1.40;0.80;;;;;;;10.58;100.00;100016.63;5077947;28;20223;-78
2023/12/25 01:48:41;;;;;;;2.13;1.10;;;;;;;10.63;100.00;100028.63;5074922;28;20638;-77
2023/12/25 01:51:06;;;;;;;2.00;0.90;;;;;;;10.63;100.00;100020.88;5078677;28;20759;-78
2023/12/25 01:53:32;;;;;;;2.30;1.00;;;;;;;10.61;100.00;100022.63;5082318;28;20190;-79
2023/12/25 01:55:57;;;;;;;1.00;0.80;;;;;;;10.62;100.00;100036.41;5079302;28;20255;-78
2023/12/25 01:58:22;;;;;;;1.53;0.80;;;;;;;10.62;100.00;100038.97;5082209;28;20194;-78
2023/12/25 02:00:48;;;;;;;2.57;1.00;;;;;;;10.59;100.00;100029.53;5078338;28;20426;-78
2023/12/25 02:03:13;;;;;;;1.43;0.77;;;;;;;10.61;100.00;100019.16;5079177;28;20281;-77
2023/12/25 02:05:39;;;;;;;1.10;0.80;;;;;;;10.61;100.00;100016.56;5076135;28;20224;-79
2023/12/25 02:08:06;;;;;;;2.27;1.00;;;;;;;10.65;100.00;100026.00;5078327;28;20179;-79
2023/12/25 02:10:32;;;;;;;1.50;0.97;;;;;;;10.58;100.00;100022.66;5081818;28;20249;-78
2023/12/25 02:12:59;;;;;;;1.33;0.80;;;;;;;10.60;100.00;100044.19;5082156;28;20192;-77
2023/12/25 02:15:26;;;;;;;0.80;0.77;;;;;;;10.58;100.00;100053.69;5078957;28;20281;-79
2023/12/25 02:17:52;;;;;;;1.13;0.80;;;;;;;10.63;100.00;100040.69;5083128;28;20186;-77
2023/12/25 02:20:18;;;;;;;2.10;0.90;;;;;;;10.67;100.00;100042.38;5085539;28;20585;-78
2023/12/25 02:22:44;;;;;;;2.67;1.10;;;;;;;10.69;100.00;100048.41;5081341;28;20240;-79
2023/12/25 02:25:21;;;;;;;1.67;0.90;;;;;;;10.67;100.00;100053.56;5081251;28;20189;-78
2023/12/25 02:27:47;;;;;;;1.60;1.00;;;;;;;10.70;100.00;100050.09;5078008;28;20219;-78
2023/12/25 02:30:12;;;;;;;1.33;1.00;;;;;;;10.74;100.00;100056.94;5084989;28;20236;-77
2023/12/25 02:32:38;;;;;;;0.90;0.90;;;;;;;10.72;100.00;100045.78;5081921;28;20213;-78
2023/12/25 02:35:04;;;;;;;1.20;0.97;;;;;;;10.73;100.00;100046.63;5078475;28;20252;-78
2023/12/25 02:37:29;;;;;;;1.40;0.90;;;;;;;10.72;100.00;100047.50;5081768;28;20228;-78
2023/12/25 02:39:54;;;;;;;1.67;0.80;;;;;;;10.70;100.00;100038.88;5080851;28;20282;-79
2023/12/25 02:42:20;;;;;;;2.07;0.80;;;;;;;10.74;100.00;100051.75;5082226;28;20597;-78
2023/12/25 02:44:45;;;;;;;1.73;1.00;;;;;;;10.73;100.00;100044.03;5076111;28;20210;-78
2023/12/25 02:47:10;;;;;;;1.40;1.00;;;;;;;10.71;100.00;100040.59;5081905;28;20233;-78
2023/12/25 02:49:35;;;;;;;2.90;0.93;;;;;;;10.72;100.00;100035.41;5079498;28;20749;-79
2023/12/25 02:52:01;;;;;;;2.53;1.30;;;;;;;10.72;100.00;100031.97;5076004;28;20223;-78
2023/12/25 02:54:26;;;;;;;1.40;1.07;;;;;;;10.70;100.00;100026.81;5073395;28;20219;-78
2023/12/25 02:56:51;;;;;;;1.17;0.80;;;;;;;10.68;100.00;100021.63;5078200;28;20264;-79
2023/12/25 02:59:17;;;;;;;1.63;1.00;;;;;;;10.69;100.00;100032.88;5076548;28;20233;-78
2023/12/25 03:01:42;;;;;;;1.17;1.00;;;;;;;10.64;100.00;100027.75;5078274;28;20440;-78
2023/12/25 03:04:07;;;;;;;1.73;0.93;;;;;;;10.63;100.00;100020.88;5074141;28;20190;-78
2023/12/25 03:06:33;;;;;;;2.27;1.00;;;;;;;10.62;100.00;100011.38;5084968;28;20193;-78
2023/12/25 03:08:58;;;;;;;0.87;0.63;;;;;;;10.64;100.00;100006.19;5079570;28;20191;-75
2023/12/25 03:11:24;;;;;;;1.40;1.10;;;;;;;10.62;100.00;100015.69;5084253;28;20303;-78
2023/12/25 03:13:50;;;;;;;1.60;1.03;;;;;;;10.54;100.00;100010.63;5078608;28;20197;-78
2023/12/25 03:16:18;;;;;;;0.73;0.73;;;;;;;10.55;100.00;100012.34;5077056;28;20187;-78
2023/12/25 03:18:43;;;;;;;1.23;0.70;;;;;;;10.49;100.00;100012.44;5076204;28;20183;-77
2023/12/25 03:21:08;;;;;;;2.40;1.00;;;;;;;10.48;100.00;100018.47;5080376;28;20208;-79
2023/12/25 03:23:34;;;;;;;1.13;0.77;;;;;;;10.46;100.00;100018.47;5083450;28;20187;-78
2023/12/25 03:25:59;;;;;;;1.10;0.90;;;;;;;10.44;100.00;100025.41;5082504;28;20183;-77
2023/12/25 03:28:26;;;;;;;1.13;0.90;;;;;;;10.45;100.00;100037.47;5076367;28;20217;-78
2023/12/25 03:30:52;;;;;;;1.53;0.70;;;;;;;10.44;100.00;100043.50;5076634;28;20268;-77
2023/12/25 03:33:17;;;;;;;1.30;0.90;;;;;;;10.46;100.00;100035.75;5080286;28;20210;-78
2023/12/25 03:35:42;;;;;;;1.93;0.87;;;;;;;10.37;100.00;100029.75;5082868;28;20193;-77
2023/12/25 03:38:08;;;;;;;1.00;0.80;;;;;;;10.39;100.00;100034.97;5074187;28;20287;-77
2023/12/25 03:40:33;;;;;;;1.80;0.97;;;;;;;10.40;100.00;100030.63;5082910;28;20203;-78
2023/12/25 03:42:58;;;;;;;1.97;0.90;;;;;;;10.40;100.00;100025.47;5076891;28;20184;-78
2023/12/25 03:45:24;;;;;;;1.23;0.70;;;;;;;10.41;100.00;100025.47;5079040;28;20189;-77
2023/12/25 03:47:49;;;;;;;1.40;0.80;;;;;;;10.47;100.00;100024.53;5081779;28;20189;-78
2023/12/25 03:50:14;;;;;;;1.17;0.93;;;;;;;10.43;100.00;100015.97;5076710;28;20240;-77
2023/12/25 03:52:39;;;;;;;1.53;0.90;;;;;;;10.41;100.00;100011.66;5080632;28;20182;-78
2023/12/25 03:55:05;;;;;;;1.07;0.80;;;;;;;10.33;100.00;100017.78;5077821;28;20179;-78
2023/12/25 03:57:30;;;;;;;1.00;0.60;;;;;;;10.33;100.00;100027.25;5077090;28;20185;-77
2023/12/25 03:59:56;;;;;;;1.07;0.80;;;;;;;10.33;100.00;100029.81;5081294;28;20793;-77
2023/12/25 04:02:21;;;;;;;1.10;0.97;;;;;;;10.28;100.00;100031.63;5074984;28;20181;-78
2023/12/25 04:04:47;;;;;;;0.60;0.60;;;;;;;10.27;100.00;100035.94;5074865;28;20187;-77
2023/12/25 04:07:13;;;;;;;0.80;0.77;;;;;;;10.27;100.00;100035.09;5077289;28;20189;-78
2023/12/25 04:09:38;;;;;;;0.90;0.80;;;;;;;10.26;100.00;100036.81;5075468;28;20317;-78
2023/12/25 04:12:04;;;;;;;1.13;0.80;;;;;;;10.22;100.00;100042.88;5069949;28;20182;-78
2023/12/25 04:14:29;;;;;;;1.00;0.90;;;;;;;10.22;100.00;100045.47;5074552;28;20190;-78
2023/12/25 04:16:54;;;;;;;1.20;0.90;;;;;;;10.20;100.00;100045.50;5078397;28;20304;-77
2023/12/25 04:19:20;;;;;;;0.70;0.70;;;;;;;10.21;100.00;100046.34;5078654;28;21254;-78
2023/12/25 04:21:45;;;;;;;1.13;0.80;;;;;;;10.16;100.00;100033.47;5078949;28;20194;-77
2023/12/25 04:24:10;;;;;;;1.07;0.80;;;;;;;10.15;100.00;100036.09;5071204;28;20283;-77
2023/12/25 04:26:36;;;;;;;0.70;0.53;;;;;;;10.13;100.00;100048.16;5081521;28;20229;-78
2023/12/25 04:29:01;;;;;;;1.33;1.07;;;;;;;10.13;100.00;100043.88;5078331;28;20211;-78
2023/12/25 04:31:26;;;;;;;1.20;1.00;;;;;;;10.11;100.00;100039.56;5078700;28;20246;-78
2023/12/25 04:33:52;;;;;;;1.13;0.77;;;;;;;10.11;100.00;100042.16;5075105;28;20188;-77
2023/12/25 04:36:17;;;;;;;1.00;0.83;;;;;;;10.05;100.00;100041.38;5075934;28;20185;-78
2023/12/25 04:38:42;;;;;;;1.00;0.90;;;;;;;10.08;100.00;100040.47;5068867;28;20612;-76
2023/12/25 04:41:08;;;;;;;0.90;0.70;;;;;;;10.02;100.00;100038.81;5066644;28;20612;-77
2023/12/25 04:43:33;;;;;;;1.20;0.83;;;;;;;10.02;100.00;100043.09;5073973;28;20196;-78
2023/12/25 04:45:59;;;;;;;3.60;1.13;;;;;;;10.02;100.00;100056.91;5074058;28;20654;-78
2023/12/25 04:48:24;;;;;;;1.00;0.80;;;;;;;10.01;100.00;100062.94;5074096;28;20187;-77
2023/12/25 04:50:49;;;;;;;1.40;0.97;;;;;;;9.96;100.00;100059.53;5074075;28;20209;-77
2023/12/25 04:53:15;;;;;;;1.10;0.90;;;;;;;10.00;100.00;100058.66;5074080;28;20181;-79
2023/12/25 04:55:41;;;;;;;1.00;0.80;;;;;;;9.97;100.00;100066.44;5071336;28;20178;-78
2023/12/25 04:58:06;;;;;;;2.00;0.73;;;;;;;9.99;100.00;100059.50;5072520;28;20696;-78
2023/12/25 05:00:33;;;;;;;1.53;1.00;;;;;;;9.94;100.00;100061.28;5071873;28;20198;-77
2023/12/25 05:02:59;;;;;;;1.67;1.00;;;;;;;9.98;100.00;100056.97;5068486;28;20186;-77
2023/12/25 05:05:25;;;;;;;2.93;0.97;;;;;;;9.97;100.00;100061.25;5076203;28;20189;-78
2023/12/25 05:07:50;;;;;;;2.20;0.93;;;;;;;9.91;100.00;100066.47;5073381;28;20685;-78
2023/12/25 05:10:16;;;;;;;1.00;0.83;;;;;;;9.94;100.00;100061.28;5073159;28;20213;-77
2023/12/25 05:12:42;;;;;;;1.40;0.97;;;;;;;9.98;100.00;100059.53;5068452;28;20228;-78
2023/12/25 05:15:08;;;;;;;1.63;0.70;;;;;;;9.87;100.00;100054.47;5074577;28;20280;-77
2023/12/25 05:17:33;;;;;;;1.67;0.90;;;;;;;9.89;100.00;100055.31;5070708;28;20215;-77
2023/12/25 05:19:58;;;;;;;1.97;1.00;;;;;;;9.86;100.00;100050.19;5071851;28;20206;-79
2023/12/25 05:22:24;;;;;;;2.00;1.00;;;;;;;9.84;100.00;100047.59;5073109;28;20288;-78
2023/12/25 05:24:49;;;;;;;0.70;0.70;;;;;;;9.90;100.00;100046.69;5071221;28;20187;-78
2023/12/25 05:27:14;;;;;;;1.07;0.70;;;;;;;9.87;100.00;100044.13;5074550;28;20216;-78
2023/12/25 05:29:39;;;;;;;0.70;0.67;;;;;;;9.87;100.00;100037.22;5075262;28;20250;-78
2023/12/25 05:32:05;;;;;;;1.57;1.30;;;;;;;9.84;100.00;100036.41;5075898;28;20641;-78
2023/12/25 05:34:30;;;;;;;1.63;1.20;;;;;;;9.85;100.00;100020.88;5075756;28;20185;-78
2023/12/25 05:36:56;;;;;;;1.43;1.00;;;;;;;9.83;100.00;100038.13;5074075;28;20257;-77
2023/12/25 05:39:22;;;;;;;1.70;1.07;;;;;;;9.86;100.00;100035.50;5074150;28;20197;-78
2023/12/25 05:41:47;;;;;;;1.37;0.93;;;;;;;9.84;100.00;100024.31;5074289;28;20235;-78
2023/12/25 05:44:12;;;;;;;1.67;0.90;;;;;;;9.83;100.00;100037.28;5071006;28;20195;-78
2023/12/25 05:46:38;;;;;;;1.20;0.90;;;;;;;9.85;100.00;100020.88;5073099;28;20185;-79
2023/12/25 05:49:04;;;;;;;1.70;1.20;;;;;;;9.81;100.00;100031.25;5065692;28;20957;-77
2023/12/25 05:51:29;;;;;;;1.70;1.40;;;;;;;9.81;100.00;100037.31;5078151;28;20225;-77
2023/12/25 05:53:55;;;;;;;2.10;1.47;;;;;;;9.81;100.00;100041.59;5073954;28;20181;-77
2023/12/25 05:56:20;;;;;;;2.33;2.13;;;;;;;9.77;100.00;100035.59;5077469;28;20185;-77
2023/12/25 05:58:45;;;;;;;1.90;1.80;;;;;;;9.77;100.00;100045.94;5076758;28;20213;-78
2023/12/25 06:01:13;;;;;;;2.40;2.30;;;;;;;9.84;100.00;100051.91;5074050;28;20689;-79
2023/12/25 06:03:38;;;;;;;1.67;1.20;;;;;;;9.81;100.00;100047.63;5080148;28;20193;-77
2023/12/25 06:06:04;;;;;;;1.80;1.50;;;;;;;9.83;100.00;100056.22;5077051;28;20692;-78
2023/12/25 06:08:30;;;;;;;1.50;1.10;;;;;;;9.80;100.00;100058.84;5076873;28;20292;-78
2023/12/25 06:10:55;;;;;;;2.00;0.97;;;;;;;9.77;100.00;100058.88;5074022;28;20843;-78
2023/12/25 06:13:21;;;;;;;2.40;1.00;;;;;;;9.72;100.00;100056.34;5074278;28;20178;-77
2023/12/25 06:15:51;;;;;;;1.30;1.03;;;;;;;9.79;100.00;100064.88;5077127;28;20181;-77
2023/12/25 06:18:17;;;;;;;1.30;0.93;;;;;;;9.74;100.00;100066.66;5082601;28;20178;-77
2023/12/25 06:20:43;;;;;;;1.33;1.10;;;;;;;9.76;100.00;100068.34;5077785;28;20193;-79
2023/12/25 06:23:08;;;;;;;2.27;1.07;;;;;;;9.71;100.00;100066.66;5078373;28;20546;-78
2023/12/25 06:25:33;;;;;;;0.90;0.80;;;;;;;9.71;100.00;100079.59;5082054;28;20200;-78
2023/12/25 06:27:58;;;;;;;1.07;0.97;;;;;;;9.72;100.00;100071.84;5072614;28;20337;-77
2023/12/25 06:30:24;;;;;;;1.20;0.97;;;;;;;9.73;100.00;100058.06;5077599;28;20215;-78
2023/12/25 06:32:50;;;;;;;1.80;1.07;;;;;;;9.77;100.00;100069.22;5074042;28;20173;-78
2023/12/25 06:35:15;;;;;;;2.10;0.90;;;;;;;9.74;100.00;100075.28;5077142;28;20182;-77
2023/12/25 06:37:40;;;;;;;3.50;0.93;;;;;;;9.71;100.00;100066.66;5076252;28;20681;-78
2023/12/25 06:40:06;;;;;;;1.30;0.90;;;;;;;9.70;100.00;100064.94;5068667;28;20347;-78
2023/12/25 06:42:32;;;;;;;0.97;0.83;;;;;;;9.76;99.90;100055.41;5092268;28;20186;-78
2023/12/25 06:44:57;;;;;;;1.27;1.17;;;;;;;9.75;100.00;100051.16;5077611;28;20190;-78
2023/12/25 06:47:22;;;;;;;1.33;1.00;;;;;;;9.74;100.00;100045.97;5074804;28;20664;-78
2023/12/25 06:49:48;;;;;;;1.70;1.00;;;;;;;9.75;99.81;100051.16;5080691;28;20213;-78
2023/12/25 06:52:13;;;;;;;1.13;1.00;;;;;;;9.77;99.63;100044.22;5079629;28;20784;-78
2023/12/25 06:54:38;;;;;;;1.30;0.97;;;;;;;9.70;100.00;100042.56;5080206;28;20206;-79
2023/12/25 06:57:04;;;;;;;2.13;1.27;;;;;;;9.73;99.62;100064.94;5072815;28;20187;-78
2023/12/25 06:59:30;;;;;;;0.80;0.60;;;;;;;9.77;97.97;100071.78;5076053;28;20209;-78
2023/12/25 07:01:55;;;;;;;1.20;0.90;;;;;;;9.73;98.95;100064.94;5073962;28;20660;-79
2023/12/25 07:04:21;;;;;;;1.50;0.90;;;;;;;9.72;99.09;100068.38;5071817;28;20322;-77
2023/12/25 07:06:47;;;;;;;1.23;0.87;;;;;;;9.80;98.81;100065.72;5081867;28;20184;-78
2023/12/25 07:09:14;;;;;;;0.70;0.70;;;;;;;9.75;99.37;100060.59;5076789;28;20193;-79
2023/12/25 07:11:40;;;;;;;1.33;0.87;;;;;;;9.78;98.97;100060.59;5071423;28;20236;-77
2023/12/25 07:14:05;;;;;;;1.10;0.70;;;;;;;9.76;99.46;100067.50;5079503;28;20188;-79
2023/12/25 07:16:31;;;;;;;0.97;0.70;;;;;;;9.74;99.27;100064.06;5076330;28;20654;-78
2023/12/25 07:18:56;;;;;;;2.47;1.23;;;;;;;9.77;99.01;100071.78;5073080;28;20265;-78
2023/12/25 07:21:22;;;;;;;0.87;0.70;;;;;;;9.78;98.64;100068.34;5077335;28;20201;-78
2023/12/25 07:23:47;;;;;;;1.57;0.70;;;;;;;9.79;98.59;100067.47;5076205;28;20296;-78
2023/12/25 07:26:12;;;;;;;1.57;1.00;;;;;;;9.80;98.73;100071.78;5073521;28;20269;-77
2023/12/25 07:28:37;;;;;;;2.83;1.20;;;;;;;9.76;98.77;100073.50;5070524;28;20190;-77
2023/12/25 07:31:03;;;;;;;1.47;1.00;;;;;;;9.73;99.05;100067.50;5076089;28;20220;-78
2023/12/25 07:33:29;;;;;;;1.73;1.30;;;;;;;9.76;98.71;100078.66;5075621;28;20265;-78
2023/12/25 07:35:54;;;;;;;1.00;0.90;;;;;;;9.75;98.89;100089.91;5073178;28;20192;-77
2023/12/25 07:38:20;;;;;;;1.00;0.87;;;;;;;9.73;99.07;100096.81;5073512;28;20299;-77
2023/12/25 07:40:49;;;;;;;0.93;0.90;;;;;;;9.77;98.82;100101.06;5076233;28;20233;-79
2023/12/25 07:43:14;;;;;;;0.93;0.83;;;;;;;9.79;98.07;100114.00;5080572;28;21666;-77
2023/12/25 07:45:40;;;;;;;1.07;0.90;;;;;;;9.80;98.48;100113.13;5079426;28;20217;-78
2023/12/25 07:48:05;;;;;;;0.80;0.77;;;;;;;9.79;98.75;100118.28;5079619;28;20242;-79
2023/12/25 07:50:31;;;;;;;1.43;1.00;;;;;;;9.80;98.17;100117.41;5082747;28;20216;-77
2023/12/25 07:52:56;;;;;;;1.40;0.87;;;;;;;9.80;98.51;100123.47;5079603;28;20181;-78
2023/12/25 07:55:22;;;;;;;1.77;1.10;;;;;;;9.81;97.56;100113.97;5080793;28;20177;-79
2023/12/25 07:57:47;;;;;;;1.40;0.90;;;;;;;9.81;97.81;100116.53;5078974;28;20187;-78
2023/12/25 08:00:13;;;;;;;1.87;0.90;;;;;;;9.82;97.96;100115.69;5071256;28;20205;-79
2023/12/25 08:02:38;;;;;;;2.37;1.10;;;;;;;9.83;97.76;100132.91;5074067;28;20185;-78
2023/12/25 08:05:05;;;;;;;1.20;0.90;;;;;;;9.83;97.51;100135.50;5073205;28;20227;-78
2023/12/25 08:07:30;;;;;;;1.03;0.80;;;;;;;9.80;98.88;100138.09;5076152;28;20438;-78
2023/12/25 08:09:56;;;;;;;1.10;0.80;;;;;;;9.86;98.33;100145.81;5074417;28;20742;-78
2023/12/25 08:12:21;;;;;;;0.73;0.70;;;;;;;9.85;97.62;100149.25;5069153;28;20277;-77
2023/12/25 08:14:47;;;;;;;0.97;0.80;;;;;;;9.83;98.21;100154.44;5075723;28;20188;-77
2023/12/25 08:17:12;;;;;;;1.77;0.90;;;;;;;9.83;98.79;100169.94;5072327;28;20174;-78
2023/12/25 08:19:37;;;;;;;1.10;0.87;;;;;;;9.86;98.77;100157.00;5062546;28;20321;-79
2023/12/25 08:22:03;;;;;;;1.87;1.00;;;;;;;9.86;99.48;100166.50;5079429;28;20190;-77
2023/12/25 08:24:28;;;;;;;1.53;0.90;;;;;;;9.84;99.79;100175.97;5073670;28;20980;-78
2023/12/25 08:26:53;;;;;;;0.90;0.80;;;;;;;9.86;99.75;100169.91;5072688;28;20553;-77
2023/12/25 08:29:19;;;;;;;1.87;1.03;;;;;;;9.89;100.00;100164.72;5076089;28;20181;-78
2023/12/25 08:31:44;;;;;;;1.47;0.97;;;;;;;9.93;100.00;100159.53;5071760;28;20689;-78
2023/12/25 08:34:10;;;;;;;1.07;0.87;;;;;;;9.95;100.00;100150.03;5073470;28;20642;-78
2023/12/25 08:36:35;;;;;;;1.10;0.93;;;;;;;9.97;100.00;100164.66;5072108;28;20189;-77
2023/12/25 08:39:00;;;;;;;1.53;1.00;;;;;;;9.99;100.00;100160.34;5070936;28;20217;-77
2023/12/25 08:41:26;;;;;;;1.10;1.00;;;;;;;10.00;100.00;100161.19;5076155;28;20263;-78
2023/12/25 08:43:51;;;;;;;1.73;1.10;;;;;;;9.97;100.00;100169.00;5080646;28;20208;-77
2023/12/25 08:46:17;;;;;;;1.10;1.00;;;;;;;10.05;100.00;100167.19;5076755;28;20181;-78
2023/12/25 08:48:42;;;;;;;1.83;0.90;;;;;;;10.12;99.90;100155.06;5075934;28;20264;-76
2023/12/25 08:51:08;;;;;;;1.40;1.00;;;;;;;10.12;100.00;100161.09;5071279;28;20223;-78
2023/12/25 08:53:33;;;;;;;1.20;1.00;;;;;;;10.16;100.00;100167.94;5080545;28;20246;-78
2023/12/25 08:56:00;;;;;;;2.47;0.90;;;;;;;10.22;100.00;100154.97;5070118;28;20190;-77
2023/12/25 08:58:26;;;;;;;1.20;1.10;;;;;;;10.29;100.00;100157.47;5074803;28;20220;-78
2023/12/25 09:00:51;;;;;;;1.20;0.90;;;;;;;10.34;100.00;100172.09;5073082;28;20210;-78
2023/12/25 09:03:17;;;;;;;2.13;1.20;;;;;;;10.42;100.00;100176.34;5065262;28;20196;-79
2023/12/25 09:05:43;;;;;;;1.30;0.83;;;;;;;10.44;100.00;100188.38;5063176;28;20208;-78
2023/12/25 09:08:08;;;;;;;0.77;0.77;;;;;;;10.46;100.00;100191.81;5055491;28;20494;-79
2023/12/25 09:10:34;;;;;;;1.20;1.00;;;;;;;10.51;100.00;100189.22;5058496;28;20222;-79
2023/12/25 09:12:59;;;;;;;1.20;1.00;;;;;;;10.50;100.00;100203.88;5064001;28;20193;-78
2023/12/25 09:15:25;;;;;;;1.10;0.90;;;;;;;10.57;100.00;100209.00;5058695;28;20279;-79
2023/12/25 09:17:50;;;;;;;1.10;0.93;;;;;;;10.62;100.00;100209.78;5065079;28;20181;-79
2023/12/25 09:20:16;;;;;;;2.03;0.83;;;;;;;10.62;100.00;100210.66;5060100;28;20263;-78
2023/12/25 09:22:41;;;;;;;1.00;0.90;;;;;;;10.70;100.00;100204.53;5070014;28;20182;-78
2023/12/25 09:25:07;;;;;;;1.50;0.87;;;;;;;10.65;100.00;100200.28;5075713;28;20186;-78
2023/12/25 09:27:33;;;;;;;0.90;0.70;;;;;;;10.66;100.00;100212.31;5074596;28;21141;-79
2023/12/25 09:29:58;;;;;;;0.80;0.70;;;;;;;10.68;100.00;100215.75;5078081;28;20236;-77
2023/12/25 09:32:24;;;;;;;1.50;0.80;;;;;;;10.66;100.00;100208.88;5079458;28;20193;-78
2023/12/25 09:34:49;;;;;;;0.97;0.90;;;;;;;10.74;100.00;100225.19;5082931;28;20209;-77
2023/12/25 09:37:15;;;;;;;1.27;0.80;;;;;;;10.72;100.00;100211.41;5081875;28;20185;-78
2023/12/25 09:39:43;;;;;;;1.37;1.00;;;;;;;10.75;100.00;100219.13;5079271;28;20203;-77
2023/12/25 09:42:10;;;;;;;0.80;0.80;;;;;;;10.73;100.00;100232.97;5078584;28;20251;-77
2023/12/25 09:44:37;;;;;;;1.00;0.90;;;;;;;10.64;100.00;100229.63;5079393;28;20198;-77
2023/12/25 09:47:06;;;;;;;3.97;2.80;;;;;;;10.70;100.00;100233.00;5079866;28;20181;-78
2023/12/25 09:49:34;;;;;;;1.60;0.83;;;;;;;10.72;100.00;100231.25;5079626;28;20221;-78
2023/12/25 09:52:02;;;;;;;0.80;0.80;;;;;;;10.65;100.00;100223.56;5085638;28;20187;-78
2023/12/25 09:54:27;;;;;;;1.47;1.20;;;;;;;10.64;100.00;100229.63;5081091;28;20211;-77
2023/12/25 09:56:55;;;;;;;1.50;1.10;;;;;;;10.63;100.00;100221.84;5085833;28;20186;-78
2023/12/25 09:59:21;;;;;;;1.93;0.90;;;;;;;10.62;100.00;100212.38;5081175;28;20185;-78
2023/12/25 10:01:47;;;;;;;1.27;0.80;;;;;;;10.65;100.00;100222.69;5078524;28;20216;-78
2023/12/25 10:04:12;;;;;;;0.70;0.63;;;;;;;10.72;100.00;100224.38;5080401;28;20183;-78
2023/12/25 10:06:38;;;;;;;1.20;0.80;;;;;;;10.81;100.00;100226.00;5078216;28;20190;-79
2023/12/25 10:09:03;;;;;;;1.90;0.77;;;;;;;10.80;100.00;100219.94;5077061;28;20189;-78
2023/12/25 10:11:29;;;;;;;3.23;1.40;;;;;;;10.88;100.00;100219.00;5075336;28;20215;-78
2023/12/25 10:13:54;;;;;;;0.83;0.73;;;;;;;10.91;100.00;100225.00;5078833;28;20185;-79
2023/12/25 10:16:20;;;;;;;0.80;0.60;;;;;;;10.84;100.00;100236.28;5081934;28;20641;-79
2023/12/25 10:18:47;;;;;;;0.67;0.67;;;;;;;10.66;100.00;100234.75;5077077;28;20281;-78
2023/12/25 10:21:12;;;;;;;1.53;1.13;;;;;;;10.66;100.00;100234.75;5076478;28;20195;-78
2023/12/25 10:23:38;;;;;;;1.10;0.87;;;;;;;10.48;100.00;100235.81;5088931;28;20193;-79
2023/12/25 10:26:04;;;;;;;1.30;1.20;;;;;;;10.42;100.00;100217.75;5079898;28;20201;-78
2023/12/25 10:28:33;;;;;;;1.10;1.00;;;;;;;10.41;100.00;100219.50;5077454;28;20205;-78
2023/12/25 10:30:59;;;;;;;1.10;1.00;;;;;;;10.43;100.00;100203.94;5076599;28;20691;-77
2023/12/25 10:33:26;;;;;;;1.60;1.20;;;;;;;10.43;100.00;100201.34;5083175;28;20775;-77
2023/12/25 10:36:09;;;;;;;1.33;0.70;;;;;;;10.23;100.00;100194.59;5074024;28;20193;-77
2023/12/25 10:38:36;;;;;;;1.40;0.80;;;;;;;10.16;100.00;100201.56;5069242;28;20650;-78
2023/12/25 10:41:22;;;;;;;1.03;0.93;;;;;;;10.26;100.00;100193.72;5062120;28;20209;-77
2023/12/25 10:43:59;;;;;;;0.77;0.70;;;;;;;10.37;100.00;100181.53;5070730;28;20225;-78
2023/12/25 10:46:30;;;;;;;1.30;1.00;;;;;;;10.37;100.00;100192.75;5064928;28;20212;-77
2023/12/25 10:48:56;;;;;;;1.80;1.20;;;;;;;10.42;100.00;100192.75;5062088;28;20182;-78
2023/12/25 10:51:40;;;;;;;1.53;0.90;;;;;;;10.51;100.00;100199.56;5063686;28;20207;-77
2023/12/25 10:54:09;;;;;;;1.60;1.50;;;;;;;10.59;100.00;100202.06;5066834;28;20194;-78
2023/12/25 10:56:36;;;;;;;1.40;0.90;;;;;;;10.48;100.00;100199.59;5066551;28;20198;-77
2023/12/25 10:59:15;;;;;;;2.20;1.30;;;;;;;10.45;100.00;100202.19;5071704;28;20275;-79
2023/12/25 11:01:44;;;;;;;0.97;0.97;;;;;;;10.42;100.00;100197.94;5064491;28;20182;-78
2023/12/25 11:04:12;;;;;;;1.17;1.00;;;;;;;10.43;100.00;100194.47;5066525;28;20195;-79
2023/12/25 11:06:38;;;;;;;1.43;1.20;;;;;;;10.50;100.00;100203.03;5063724;28;20194;-78
2023/12/25 11:09:04;;;;;;;1.53;1.00;;;;;;;10.55;100.00;100198.63;5069100;28;20211;-77
2023/12/25 11:11:31;;;;;;;1.53;1.00;;;;;;;10.63;100.00;100195.97;5067213;28;20214;-78
2023/12/25 11:13:57;;;;;;;0.83;0.60;;;;;;;10.63;100.00;100207.19;5072006;28;20320;-78
2023/12/25 11:16:23;;;;;;;2.30;2.10;;;;;;;10.60;100.00;100216.69;5074078;28;20188;-77